North Woods Beach, Wisconsin
Current Conditions -  °F | °C
As of 2:53 PM on Saturday 25 Oct 2014 (Local Time) from KHYR Reporting Station
Clear Clear  
Wind Chill: 16°   Ceiling: Unl
Heat Index: 16°   Visibility: 10mi
Dew Point: -6°   Wind: 8mph
Humidity: 22%   Direction: 270°W
Pressure: 29.92"   Gusts: 24mph
Location:  46.0387°N, 91.2627°W
Report Text: KHYR 251953Z AUTO 27007G21KT 240V300 10SM CLR 16/M06 A2992 RMK AO2 SLP134 T01611056
Loading
Personal Weather Stations






























Interactive Weather Map
Tropical Storm Tracking
New forecast layout! Learn more

10-Day Weather Forecast

Advertisements
Track Severe Weather on mobile